Time;durP1;ratioP1;P1;durP2;ratioP2;P2;SDS_P1;SDS_P2;PMS_P1;PMS_P2;Temp;Humidity;BMP_temperature;BMP_pressure;BME280_temperature;BME280_humidity;BME280_pressure;Samples;Min_cycle;Max_cycle;Signal;HPM_P1;HPM_P2
2022/05/29 00:01:40;;;;;;;1.92;1.50;;;;;;;8.73;72.34;101751.22;4992347;28;20553;-71
2022/05/29 00:04:05;;;;;;;5.25;1.67;;;;;;;8.69;72.45;101750.47;4989665;28;20065;-71
2022/05/29 00:06:38;;;;;;;7.70;1.75;;;;;;;8.68;71.69;101748.72;4992041;28;20105;-70
2022/05/29 00:09:04;;;;;;;4.43;2.00;;;;;;;8.62;72.67;101753.56;5009801;28;20613;-70
2022/05/29 00:11:29;;;;;;;3.95;2.00;;;;;;;8.59;73.38;101741.06;5008348;28;20042;-71
2022/05/29 00:14:00;;;;;;;4.57;1.90;;;;;;;8.55;72.77;101739.44;5003017;28;20033;-70
2022/05/29 00:16:26;;;;;;;4.07;2.20;;;;;;;8.51;73.14;101745.09;4991452;28;20042;-71
2022/05/29 00:18:51;;;;;;;3.65;1.70;;;;;;;8.46;73.40;101726.34;4988502;28;20057;-71
2022/05/29 00:21:17;;;;;;;4.07;1.63;;;;;;;8.46;73.17;101728.19;4994615;28;20081;-69
2022/05/29 00:23:43;;;;;;;7.80;1.80;;;;;;;8.43;73.54;101726.47;5010373;28;20042;-71
2022/05/29 00:26:08;;;;;;;3.30;2.10;;;;;;;8.38;73.71;101728.53;5008225;28;20030;-71
2022/05/29 00:28:34;;;;;;;3.97;1.70;;;;;;;8.38;73.19;101732.13;4991655;28;20497;-70
2022/05/29 00:30:59;;;;;;;4.63;1.83;;;;;;;8.36;73.10;101722.31;4999053;28;20103;-71
2022/05/29 00:33:24;;;;;;;2.78;1.80;;;;;;;8.28;73.79;101722.66;5008726;28;20584;-69
2022/05/29 00:35:52;;;;;;;1.75;1.58;;;;;;;8.27;74.01;101718.19;5005368;28;20030;-69
2022/05/29 00:38:17;;;;;;;2.58;1.42;;;;;;;8.25;73.59;101714.66;4991621;28;20436;-70
2022/05/29 00:40:57;;;;;;;7.63;1.85;;;;;;;8.29;73.30;101721.69;5009884;28;20037;-69
2022/05/29 00:43:22;;;;;;;10.70;2.20;;;;;;;8.32;74.34;101715.28;4993113;28;20069;-69
2022/05/29 00:46:00;;;;;;;4.07;1.90;;;;;;;8.35;74.90;101715.13;5008164;28;20470;-70
2022/05/29 00:48:26;;;;;;;4.18;2.10;;;;;;;8.40;74.69;101704.97;5008704;28;20483;-70
2022/05/29 00:50:55;;;;;;;7.00;2.45;;;;;;;8.43;75.32;101696.66;5002452;28;20065;-70
2022/05/29 00:53:22;;;;;;;4.55;2.20;;;;;;;8.48;75.79;101699.13;4990657;28;20100;-70
2022/05/29 00:55:57;;;;;;;5.57;1.90;;;;;;;8.50;75.00;101695.41;4991154;28;20021;-70
2022/05/29 00:58:24;;;;;;;5.75;2.63;;;;;;;8.57;75.57;101693.25;4984947;28;20077;-70
2022/05/29 01:00:51;;;;;;;4.75;2.10;;;;;;;8.60;74.46;101699.41;5005340;28;20607;-70
2022/05/29 01:03:17;;;;;;;5.90;2.30;;;;;;;8.64;74.79;101695.59;5008234;28;20053;-71
2022/05/29 01:05:42;;;;;;;7.93;1.88;;;;;;;8.69;74.64;101698.06;5000006;28;20117;-70
2022/05/29 01:08:21;;;;;;;6.15;2.15;;;;;;;8.72;74.60;101692.50;5008886;28;20103;-70
2022/05/29 01:10:50;;;;;;;7.55;2.05;;;;;;;8.74;74.50;101692.41;4991062;28;20113;-70
2022/05/29 01:13:46;;;;;;;4.57;2.00;;;;;;;8.79;74.21;101701.19;4999261;28;20038;-70
2022/05/29 01:16:32;;;;;;;5.72;2.05;;;;;;;8.80;73.80;101684.81;5006359;28;20029;-70
2022/05/29 01:19:31;;;;;;;4.15;1.98;;;;;;;8.85;73.91;101687.28;5008113;28;20038;-70
2022/05/29 01:22:19;;;;;;;3.28;1.52;;;;;;;8.83;73.97;101683.78;5006568;28;20062;-70
2022/05/29 01:25:03;;;;;;;4.75;1.80;;;;;;;8.85;74.46;101674.59;5008394;28;20184;-69
2022/05/29 01:27:43;;;;;;;4.45;1.75;;;;;;;8.84;74.72;101674.69;5000802;28;20049;-70
2022/05/29 01:30:14;;;;;;;5.03;1.90;;;;;;;8.80;74.62;101679.38;4976972;28;20057;-70
2022/05/29 01:33:21;;;;;;;11.55;2.00;;;;;;;8.80;73.88;101673.09;5008625;28;20049;-70
2022/05/29 01:35:56;;;;;;;7.63;2.38;;;;;;;8.78;73.70;101666.88;4986300;28;20034;-70
2022/05/29 01:38:30;;;;;;;3.08;2.05;;;;;;;8.75;74.23;101670.63;5005101;28;20069;-70
2022/05/29 01:41:18;;;;;;;9.38;1.73;;;;;;;8.69;73.80;101662.81;5004481;28;20493;-71
2022/05/29 01:43:53;;;;;;;6.00;1.60;;;;;;;8.65;74.27;101661.19;4984366;28;20035;-70
2022/05/29 01:46:33;;;;;;;6.20;2.13;;;;;;;8.58;74.53;101668.78;5000081;28;20046;-70
2022/05/29 01:49:04;;;;;;;4.72;1.95;;;;;;;8.50;75.52;101670.13;4990051;28;20207;-70
2022/05/29 01:52:01;;;;;;;8.02;2.08;;;;;;;8.43;73.85;101661.41;5004329;28;20118;-71
2022/05/29 01:54:57;;;;;;;6.60;1.60;;;;;;;8.34;74.66;101656.41;4985235;28;20133;-70
2022/05/29 01:57:31;;;;;;;4.13;2.03;;;;;;;8.26;75.21;101659.53;5000933;28;20142;-70
2022/05/29 02:00:05;;;;;;;2.75;1.63;;;;;;;8.19;75.08;101653.50;4999106;28;20112;-71
2022/05/29 02:02:36;;;;;;;6.90;1.95;;;;;;;8.16;75.94;101647.38;5007973;28;20091;-70
2022/05/29 02:05:08;;;;;;;4.32;1.98;;;;;;;8.13;75.80;101648.41;5002611;28;20114;-71
2022/05/29 02:07:49;;;;;;;3.72;2.00;;;;;;;8.06;75.61;101643.34;5006841;28;20040;-70
2022/05/29 02:10:32;;;;;;;6.03;1.90;;;;;;;8.13;75.62;101651.13;5008208;28;20042;-71
2022/05/29 02:13:10;;;;;;;3.25;1.60;;;;;;;8.10;75.48;101647.66;4994995;28;20141;-71
2022/05/29 02:15:56;;;;;;;4.88;1.92;;;;;;;8.08;75.65;101653.19;4989172;28;20034;-70
2022/05/29 02:18:37;;;;;;;5.57;1.60;;;;;;;8.07;76.72;101646.00;4997573;28;20050;-70
2022/05/29 02:21:11;;;;;;;6.47;2.10;;;;;;;8.10;76.67;101640.41;4993529;28;20030;-70
2022/05/29 02:23:45;;;;;;;3.70;1.98;;;;;;;8.16;76.71;101639.25;5007509;28;20034;-71
2022/05/29 02:26:17;;;;;;;4.32;1.90;;;;;;;8.16;77.02;101636.56;5007543;28;20144;-70
2022/05/29 02:28:48;;;;;;;7.80;2.55;;;;;;;8.18;77.02;101637.34;4991878;28;20034;-70
2022/05/29 02:31:21;;;;;;;5.43;2.40;;;;;;;8.14;76.65;101636.59;5001595;28;20125;-69
2022/05/29 02:34:05;;;;;;;8.52;2.33;;;;;;;8.16;75.96;101637.44;5003330;28;20037;-70
2022/05/29 02:36:52;;;;;;;7.03;2.20;;;;;;;8.13;76.26;101632.16;4986631;28;20030;-70
2022/05/29 02:39:45;;;;;;;4.00;2.28;;;;;;;8.08;76.74;101627.91;4989447;28;20100;-69
2022/05/29 02:42:30;;;;;;;6.20;2.40;;;;;;;8.07;76.51;101629.75;4984851;28;20040;-70
2022/05/29 02:45:11;;;;;;;5.43;2.05;;;;;;;8.06;76.93;101627.97;4953126;28;20120;-69
2022/05/29 02:48:14;;;;;;;9.05;2.35;;;;;;;8.09;76.07;101627.81;4998093;28;20133;-70
2022/05/29 02:50:51;;;;;;;9.10;2.55;;;;;;;8.10;76.90;101624.16;4992831;28;20029;-70
2022/05/29 02:53:16;;;;;;;6.22;2.25;;;;;;;8.12;78.19;101621.38;5007142;28;20044;-69
2022/05/29 02:55:43;;;;;;;7.90;2.70;;;;;;;8.15;78.05;101618.50;5004548;28;20022;-70
2022/05/29 02:58:23;;;;;;;7.20;2.33;;;;;;;8.16;77.38;101621.16;4993544;28;20069;-68
2022/05/29 03:00:55;;;;;;;13.27;2.85;;;;;;;8.19;78.13;101620.13;5006183;28;20499;-70
2022/05/29 03:03:43;;;;;;;8.05;2.58;;;;;;;8.22;77.37;101616.38;4988463;28;20125;-70
2022/05/29 03:06:45;;;;;;;7.40;2.58;;;;;;;8.25;77.76;101614.38;5001492;28;20041;-71
2022/05/29 03:09:44;;;;;;;8.82;2.65;;;;;;;8.29;77.37;101612.41;5007343;28;20033;-70
2022/05/29 03:12:51;;;;;;;5.93;2.53;;;;;;;8.31;76.75;101610.50;5003910;28;20055;-70
2022/05/29 03:15:28;;;;;;;6.07;2.70;;;;;;;8.31;77.81;101607.78;5000918;28;20056;-69
2022/05/29 03:18:14;;;;;;;5.35;2.38;;;;;;;8.33;78.05;101614.00;4990045;28;20103;-69
2022/05/29 03:21:27;;;;;;;6.25;2.92;;;;;;;8.39;76.38;101611.00;4980122;28;20050;-70
2022/05/29 03:23:59;;;;;;;8.63;2.50;;;;;;;8.40;77.58;101608.22;4916760;29;20036;-70
2022/05/29 03:26:40;;;;;;;6.18;2.83;;;;;;;8.42;77.37;101609.00;4927393;29;20538;-70
2022/05/29 03:29:14;;;;;;;5.55;2.10;;;;;;;8.41;77.91;101604.56;4961517;28;20115;-70
2022/05/29 03:31:42;;;;;;;4.82;2.10;;;;;;;8.43;77.92;101602.63;5006359;28;20041;-70
2022/05/29 03:34:09;;;;;;;4.90;2.85;;;;;;;8.45;77.49;101604.41;4982318;28;20136;-70
2022/05/29 03:36:35;;;;;;;8.95;2.78;;;;;;;8.49;76.79;101604.16;4990613;28;20038;-70
2022/05/29 03:39:00;;;;;;;5.80;2.20;;;;;;;8.52;77.42;101608.53;5010424;28;20038;-70
2022/05/29 03:41:39;;;;;;;7.45;3.08;;;;;;;8.54;77.31;101601.22;4995200;28;20389;-69
2022/05/29 03:44:05;;;;;;;5.97;2.40;;;;;;;8.54;77.29;101588.53;4989548;28;20042;-70
2022/05/29 03:46:30;;;;;;;5.50;2.50;;;;;;;8.54;77.21;101587.66;5003963;28;20116;-70
2022/05/29 03:48:56;;;;;;;10.13;2.47;;;;;;;8.58;78.20;101589.22;4991771;28;20033;-69
2022/05/29 03:51:21;;;;;;;5.35;2.38;;;;;;;8.62;77.27;101585.41;5003254;28;20052;-69
2022/05/29 03:53:46;;;;;;;10.70;2.53;;;;;;;8.65;77.26;101587.97;5009874;28;20029;-69
2022/05/29 03:56:12;;;;;;;4.28;2.53;;;;;;;8.67;77.38;101595.06;5010625;28;20088;-70
2022/05/29 03:58:37;;;;;;;6.78;2.65;;;;;;;8.67;77.25;101580.59;4985967;28;20057;-70
2022/05/29 04:01:02;;;;;;;7.03;2.25;;;;;;;8.66;77.76;101582.44;4991929;28;20129;-70
2022/05/29 04:03:28;;;;;;;7.30;2.70;;;;;;;8.68;78.16;101582.38;5009396;28;20053;-70
2022/05/29 04:05:54;;;;;;;10.73;3.10;;;;;;;8.63;78.21;101570.91;4990929;28;20034;-69
2022/05/29 04:13:49;;;;;;;6.68;2.53;;;;;;;8.67;78.19;101569.75;5000694;28;20057;-70
2022/05/29 04:16:15;;;;;;;12.00;4.22;;;;;;;8.75;77.68;101569.38;5009413;28;20037;-68
2022/05/29 04:18:40;;;;;;;6.63;2.60;;;;;;;8.81;77.48;101575.34;4997631;28;20038;-70
2022/05/29 04:21:06;;;;;;;8.63;2.78;;;;;;;8.83;78.00;101581.56;4996697;28;20462;-69
2022/05/29 04:23:32;;;;;;;8.00;2.80;;;;;;;8.83;78.31;101583.41;5009657;28;20129;-70
2022/05/29 04:25:57;;;;;;;7.20;2.47;;;;;;;8.83;78.03;101578.84;4998685;28;20057;-70
2022/05/29 04:28:23;;;;;;;7.35;2.53;;;;;;;8.85;77.64;101571.50;4994417;28;20129;-69
2022/05/29 04:30:49;;;;;;;6.93;2.75;;;;;;;8.83;79.40;101572.56;4999973;28;20072;-70
2022/05/29 04:33:15;;;;;;;7.45;2.80;;;;;;;8.75;80.17;101580.22;5007794;28;20072;-69
2022/05/29 04:35:42;;;;;;;8.82;2.70;;;;;;;8.73;78.50;101583.03;5001280;28;20458;-67
2022/05/29 04:38:09;;;;;;;11.90;2.95;;;;;;;8.71;79.35;101587.63;5004276;28;20552;-68
2022/05/29 04:40:39;;;;;;;9.77;3.22;;;;;;;8.72;79.34;101585.78;4989743;28;20045;-68
2022/05/29 04:43:05;;;;;;;7.72;3.25;;;;;;;8.74;79.52;101595.63;4997211;28;20093;-68
2022/05/29 04:45:31;;;;;;;10.82;2.50;;;;;;;8.74;79.61;101592.03;5005095;28;20566;-67
2022/05/29 04:47:56;;;;;;;8.23;3.30;;;;;;;8.76;79.53;101595.53;5006191;28;20440;-68
2022/05/29 04:50:22;;;;;;;6.05;2.88;;;;;;;8.80;80.06;101597.13;5005555;28;20030;-67
2022/05/29 04:52:50;;;;;;;9.18;2.78;;;;;;;8.80;79.20;101595.28;4972802;28;20036;-68
2022/05/29 04:55:16;;;;;;;7.47;2.75;;;;;;;8.79;80.85;101593.53;5005950;28;20034;-67
2022/05/29 04:57:41;;;;;;;5.55;2.75;;;;;;;8.79;79.53;101592.66;5002979;28;20129;-68
2022/05/29 05:00:07;;;;;;;8.93;3.50;;;;;;;8.84;80.30;101586.03;5005549;28;20045;-68
2022/05/29 05:02:33;;;;;;;8.40;2.45;;;;;;;8.88;79.49;101579.47;5008813;28;20044;-68
2022/05/29 05:04:58;;;;;;;10.70;2.85;;;;;;;8.93;80.10;101580.09;5007698;28;20551;-68
2022/05/29 05:07:23;;;;;;;7.20;2.97;;;;;;;8.98;79.75;101579.84;5008803;28;20456;-68
2022/05/29 05:09:49;;;;;;;8.70;2.80;;;;;;;9.03;80.07;101561.50;5008682;28;20396;-67
2022/05/29 05:12:14;;;;;;;6.78;2.67;;;;;;;9.07;80.42;101567.63;5005092;28;20415;-68
2022/05/29 05:14:40;;;;;;;6.35;2.80;;;;;;;9.11;79.66;101567.38;4988914;28;20109;-68
2022/05/29 05:17:05;;;;;;;4.43;3.33;;;;;;;9.17;80.22;101572.47;5008111;28;20021;-68
2022/05/29 05:19:30;;;;;;;5.50;2.67;;;;;;;9.21;80.11;101562.31;4988690;28;20152;-68
2022/05/29 05:22:00;;;;;;;10.93;3.13;;;;;;;9.24;80.40;101567.59;5005429;28;20037;-69
2022/05/29 05:24:26;;;;;;;7.40;2.92;;;;;;;9.27;80.56;101559.25;5007882;28;20030;-68
2022/05/29 05:26:51;;;;;;;7.60;2.90;;;;;;;9.32;80.80;101564.44;5004580;28;20567;-69
2022/05/29 05:29:16;;;;;;;8.52;3.05;;;;;;;9.38;79.76;101566.81;5003337;28;20034;-69
2022/05/29 05:31:42;;;;;;;5.82;2.88;;;;;;;9.41;80.49;101558.47;5007786;28;20401;-69
2022/05/29 05:34:07;;;;;;;6.85;3.10;;;;;;;9.40;81.30;101567.59;4973203;28;20040;-68
2022/05/29 05:36:32;;;;;;;7.53;2.90;;;;;;;9.41;80.90;101563.91;5005250;28;20030;-68
2022/05/29 05:38:58;;;;;;;7.35;3.38;;;;;;;9.48;80.24;101567.19;5007088;28;20519;-69
2022/05/29 05:41:23;;;;;;;7.22;3.05;;;;;;;9.55;79.85;101564.00;5007570;28;20026;-67
2022/05/29 05:43:49;;;;;;;8.20;2.70;;;;;;;9.63;81.09;101555.44;4985961;28;20033;-68
2022/05/29 05:46:16;;;;;;;7.88;2.78;;;;;;;9.70;80.20;101560.44;5007308;28;20038;-67
2022/05/29 05:48:43;;;;;;;8.68;2.78;;;;;;;9.73;81.33;101551.22;5004381;28;20044;-69
2022/05/29 05:51:09;;;;;;;9.68;3.08;;;;;;;9.80;81.41;101555.34;4988345;28;20044;-68
2022/05/29 05:53:37;;;;;;;9.57;2.88;;;;;;;9.88;81.38;101558.47;5007047;28;20104;-69
2022/05/29 05:56:07;;;;;;;7.20;2.83;;;;;;;9.95;80.21;101553.59;4988498;28;20018;-68
2022/05/29 05:58:33;;;;;;;8.13;3.10;;;;;;;10.01;80.41;101553.22;4997870;28;20062;-68
2022/05/29 06:01:03;;;;;;;9.77;3.15;;;;;;;10.03;80.05;101553.13;5006135;28;20442;-69
2022/05/29 06:03:29;;;;;;;6.15;2.55;;;;;;;10.08;80.32;101554.63;5006515;28;20061;-69
2022/05/29 06:05:54;;;;;;;9.70;2.88;;;;;;;10.09;81.44;101550.94;4987322;28;20496;-68
2022/05/29 06:08:19;;;;;;;6.88;3.33;;;;;;;10.16;81.27;101552.28;4989071;28;20069;-69
2022/05/29 06:10:45;;;;;;;5.13;3.33;;;;;;;10.21;82.68;101547.50;4988937;28;20405;-68
2022/05/29 06:13:10;;;;;;;8.80;3.15;;;;;;;10.33;80.53;101547.75;5000258;28;20080;-68
2022/05/29 06:15:35;;;;;;;5.65;2.78;;;;;;;10.49;79.49;101548.56;4986798;28;20045;-68
2022/05/29 06:18:01;;;;;;;6.70;3.25;;;;;;;10.61;80.14;101547.81;5003863;28;20034;-68
2022/05/29 06:20:26;;;;;;;9.60;4.50;;;;;;;10.68;80.67;101549.19;5002520;28;20510;-68
2022/05/29 06:22:51;;;;;;;7.80;3.20;;;;;;;10.73;79.41;101544.34;5006718;28;20117;-70
2022/05/29 06:25:17;;;;;;;8.18;3.50;;;;;;;10.84;80.42;101549.13;4989148;28;20039;-68
2022/05/29 06:27:44;;;;;;;6.10;3.15;;;;;;;10.99;79.21;101542.69;4997841;28;20067;-69
2022/05/29 06:30:12;;;;;;;7.50;2.88;;;;;;;11.14;79.39;101549.00;4995572;28;20076;-68
2022/05/29 06:32:39;;;;;;;6.75;2.60;;;;;;;11.29;79.08;101541.75;5007275;28;20038;-68
2022/05/29 06:35:07;;;;;;;7.60;3.10;;;;;;;11.45;78.34;101547.94;5001814;28;20026;-69
2022/05/29 06:37:32;;;;;;;8.30;3.13;;;;;;;11.53;76.90;101546.56;4980159;28;20100;-69
2022/05/29 06:39:58;;;;;;;5.55;2.97;;;;;;;11.71;77.72;101546.25;5006427;28;20489;-69
2022/05/29 06:42:24;;;;;;;9.65;3.63;;;;;;;11.83;77.79;101544.56;5000768;28;20042;-68
2022/05/29 06:44:49;;;;;;;8.65;2.88;;;;;;;11.96;77.36;101547.34;4969016;28;20046;-67
2022/05/29 06:47:15;;;;;;;4.90;2.58;;;;;;;12.00;76.51;101552.50;4989196;28;20038;-68
2022/05/29 06:49:41;;;;;;;6.30;2.90;;;;;;;12.03;77.37;101554.16;5006308;28;20038;-70
2022/05/29 06:52:08;;;;;;;10.23;3.45;;;;;;;12.02;77.46;101555.13;5004706;28;20057;-69
2022/05/29 06:54:35;;;;;;;9.80;3.85;;;;;;;12.06;77.70;101553.94;5006903;28;20038;-69
2022/05/29 06:57:00;;;;;;;9.48;3.65;;;;;;;11.98;76.43;101548.13;5004034;28;20068;-68
2022/05/29 06:59:26;;;;;;;5.53;2.92;;;;;;;12.00;77.14;101552.50;4976166;28;20053;-69
2022/05/29 07:07:21;;;;;;;9.57;3.17;;;;;;;12.37;75.43;101546.41;5004815;28;20136;-70
2022/05/29 07:09:47;;;;;;;6.35;3.10;;;;;;;12.47;75.46;101551.13;5005030;28;20489;-69
2022/05/29 07:12:26;;;;;;;6.88;3.10;;;;;;;12.52;74.87;101545.34;4996056;28;20072;-69
2022/05/29 07:15:01;;;;;;;5.15;3.13;;;;;;;12.58;75.37;101544.91;4992450;28;20037;-69
2022/05/29 07:17:27;;;;;;;4.78;2.90;;;;;;;12.62;74.02;101548.31;5003533;28;20116;-69
2022/05/29 07:19:53;;;;;;;4.45;2.50;;;;;;;12.70;75.16;101551.38;5004010;28;20561;-68
2022/05/29 07:22:19;;;;;;;11.77;2.90;;;;;;;12.83;75.46;101545.94;5002416;28;20484;-70
2022/05/29 07:24:44;;;;;;;6.50;2.38;;;;;;;12.92;75.08;101546.16;5001502;28;20205;-67
2022/05/29 07:27:10;;;;;;;4.70;2.60;;;;;;;13.09;72.95;101539.47;4985951;28;20054;-69
2022/05/29 07:29:36;;;;;;;7.43;2.83;;;;;;;13.25;73.57;101548.34;4979557;28;20454;-69
2022/05/29 07:32:02;;;;;;;13.18;2.78;;;;;;;13.34;72.39;101537.75;5006314;28;20057;-69
2022/05/29 07:34:28;;;;;;;5.85;2.40;;;;;;;13.38;72.17;101537.41;5005657;28;20026;-68
2022/05/29 07:37:01;;;;;;;8.63;2.63;;;;;;;13.27;70.90;101531.84;4997259;28;20036;-70
2022/05/29 07:39:26;;;;;;;9.95;3.17;;;;;;;13.26;70.98;101530.09;5000147;28;20057;-69
2022/05/29 07:44:35;;;;;;;8.57;2.08;;;;;;;13.33;70.19;101536.84;4995490;28;20041;-68
2022/05/29 07:47:01;;;;;;;7.30;2.30;;;;;;;13.46;70.85;101539.56;5005946;28;20041;-69
2022/05/29 07:49:26;;;;;;;12.55;2.85;;;;;;;13.38;69.05;101536.50;4987917;28;20473;-69
2022/05/29 07:51:51;;;;;;;4.65;2.63;;;;;;;13.34;70.25;101532.28;5004630;28;20045;-70
2022/05/29 07:54:17;;;;;;;6.68;2.00;;;;;;;13.42;68.66;101530.69;5006465;28;20545;-68
2022/05/29 07:56:42;;;;;;;5.10;2.50;;;;;;;13.72;69.09;101532.16;5006672;28;20398;-68
2022/05/29 07:59:08;;;;;;;4.45;2.13;;;;;;;13.96;70.24;101515.78;4985167;28;20046;-68
2022/05/29 08:01:33;;;;;;;9.27;2.25;;;;;;;13.95;65.08;101519.50;5006854;28;20569;-68
2022/05/29 08:03:58;;;;;;;7.65;1.88;;;;;;;13.97;67.58;101521.13;4991358;28;20029;-68
2022/05/29 08:06:25;;;;;;;6.55;2.42;;;;;;;13.93;66.98;101526.94;4990088;28;20050;-69
2022/05/29 08:08:50;;;;;;;4.05;2.10;;;;;;;14.13;68.59;101529.03;5009868;28;20389;-69
2022/05/29 08:11:17;;;;;;;7.35;2.33;;;;;;;14.44;64.07;101523.91;5003158;28;20034;-68
2022/05/29 08:13:44;;;;;;;6.63;2.38;;;;;;;14.82;66.42;101522.81;4994835;28;20038;-69
2022/05/29 08:16:11;;;;;;;5.38;2.03;;;;;;;15.02;66.32;101514.75;5003017;28;20041;-68
2022/05/29 08:18:36;;;;;;;6.28;1.92;;;;;;;14.89;62.68;101519.47;5006962;28;20524;-69
2022/05/29 08:21:01;;;;;;;6.28;2.42;;;;;;;14.97;61.71;101514.25;4999415;28;20038;-69
2022/05/29 08:23:27;;;;;;;11.45;2.13;;;;;;;14.85;62.47;101503.41;4995862;28;20065;-68
2022/05/29 08:31:13;;;;;;;5.85;2.00;;;;;;;16.66;58.15;101506.47;5003630;28;20406;-68
2022/05/29 08:33:39;;;;;;;5.18;2.00;;;;;;;16.43;56.71;101504.84;5008784;28;20445;-68
2022/05/29 08:36:08;;;;;;;5.55;1.80;;;;;;;16.10;59.16;101504.00;4987585;28;20443;-69
2022/05/29 08:38:36;;;;;;;5.30;1.80;;;;;;;15.78;60.11;101507.59;5007732;28;20053;-69
2022/05/29 08:41:05;;;;;;;4.57;2.00;;;;;;;15.55;60.90;101501.25;4991762;28;20049;-69
2022/05/29 08:44:01;;;;;;;5.82;1.98;;;;;;;15.50;62.13;101506.25;4986681;28;20057;-68
2022/05/29 08:46:44;;;;;;;12.10;2.10;;;;;;;15.45;62.06;101505.75;5002105;28;20034;-69
2022/05/29 08:49:15;;;;;;;6.28;2.08;;;;;;;15.71;60.76;101502.75;4990341;28;20259;-69
2022/05/29 08:52:20;;;;;;;6.32;1.77;;;;;;;15.82;60.31;101494.50;4994505;28;20142;-69
2022/05/29 08:54:51;;;;;;;7.43;2.10;;;;;;;15.59;57.15;101487.28;5000750;28;20121;-68
2022/05/29 08:57:44;;;;;;;7.10;2.20;;;;;;;15.62;61.94;101496.16;5004628;28;20097;-68
2022/05/29 09:00:27;;;;;;;6.10;2.20;;;;;;;15.79;62.11;101497.50;4962253;28;20048;-69
2022/05/29 09:03:09;;;;;;;3.92;1.70;;;;;;;16.07;59.94;101501.50;5008790;28;20041;-68
2022/05/29 09:05:44;;;;;;;6.22;3.15;;;;;;;16.55;59.70;101493.69;5002688;28;20656;-68
2022/05/29 09:08:23;;;;;;;5.78;1.77;;;;;;;16.78;58.26;101485.31;5004005;28;20604;-69
2022/05/29 09:10:57;;;;;;;7.80;2.00;;;;;;;16.53;55.88;101481.06;5008688;28;20473;-68
2022/05/29 09:13:34;;;;;;;5.18;2.00;;;;;;;16.17;54.89;101479.63;4994762;28;20120;-68
2022/05/29 09:16:06;;;;;;;8.55;1.80;;;;;;;15.95;57.36;101477.88;4997704;28;20504;-68
2022/05/29 09:18:38;;;;;;;6.85;2.03;;;;;;;16.02;58.76;101477.19;5007275;28;20107;-69
2022/05/29 09:21:26;;;;;;;7.55;2.13;;;;;;;15.93;58.79;101475.25;4993059;28;20392;-68
2022/05/29 09:24:05;;;;;;;6.22;1.70;;;;;;;15.57;57.01;101466.34;5008665;28;20040;-69
2022/05/29 09:26:35;;;;;;;8.18;1.90;;;;;;;15.04;59.88;101470.75;5008320;28;20029;-69
2022/05/29 09:29:01;;;;;;;5.70;1.73;;;;;;;14.93;59.07;101474.38;4995535;28;20470;-69
2022/05/29 09:31:27;;;;;;;6.32;1.77;;;;;;;14.83;59.92;101467.00;4985991;28;20073;-69
2022/05/29 09:33:53;;;;;;;8.50;1.80;;;;;;;14.77;60.87;101466.50;5006274;28;20401;-69
2022/05/29 09:36:44;;;;;;;3.20;1.80;;;;;;;15.00;62.95;101459.19;4996084;28;20037;-70
2022/05/29 09:39:27;;;;;;;3.67;2.22;;;;;;;15.68;62.42;101456.38;4997842;28;20052;-68
2022/05/29 09:42:12;;;;;;;7.22;2.05;;;;;;;16.36;62.35;101457.81;5003246;28;20038;-69
2022/05/29 09:44:37;;;;;;;10.45;2.60;;;;;;;17.17;60.17;101445.13;4988753;28;20089;-68
2022/05/29 09:50:10;;;;;;;4.03;1.83;;;;;;;18.30;54.44;101448.34;4926667;29;20422;-69
2022/05/29 09:52:41;;;;;;;6.00;1.67;;;;;;;18.13;49.18;101445.47;4985979;28;20057;-69
2022/05/29 09:55:23;;;;;;;4.35;1.80;;;;;;;17.95;55.09;101437.94;5002517;28;20089;-69
2022/05/29 09:57:49;;;;;;;6.30;1.80;;;;;;;18.00;53.39;101435.63;4999505;28;20061;-68
2022/05/29 10:00:36;;;;;;;5.28;1.90;;;;;;;18.02;55.23;101436.34;4984323;28;20037;-69
2022/05/29 10:03:04;;;;;;;4.60;1.67;;;;;;;18.03;55.41;101434.44;4990044;28;20485;-69
2022/05/29 10:05:38;;;;;;;5.13;1.88;;;;;;;18.26;54.58;101435.00;4987373;28;20064;-69
2022/05/29 10:08:29;;;;;;;5.85;2.58;;;;;;;18.07;54.65;101425.75;5007902;28;20061;-69
2022/05/29 10:10:55;;;;;;;3.67;1.98;;;;;;;17.97;54.97;101433.16;4989737;28;20037;-69
2022/05/29 10:13:41;;;;;;;5.20;2.00;;;;;;;17.63;55.87;101434.56;4997839;28;20147;-69
2022/05/29 10:16:07;;;;;;;5.47;1.77;;;;;;;17.15;53.40;101427.03;4999902;28;20457;-68
2022/05/29 10:18:36;;;;;;;4.82;1.50;;;;;;;16.56;57.15;101442.34;5005470;28;20030;-68
2022/05/29 10:21:21;;;;;;;5.97;2.08;;;;;;;16.14;59.31;101436.88;4998471;28;20038;-68
2022/05/29 10:23:51;;;;;;;3.65;1.55;;;;;;;15.84;60.19;101436.72;5000960;28;20041;-67
2022/05/29 10:26:22;;;;;;;3.42;1.65;;;;;;;15.68;61.18;101439.94;5005148;28;20034;-69
2022/05/29 10:28:49;;;;;;;3.30;1.40;;;;;;;15.49;61.75;101435.09;4997253;28;20057;-68
2022/05/29 10:31:27;;;;;;;2.40;1.17;;;;;;;15.51;62.52;101438.56;4980043;28;20061;-70
2022/05/29 10:34:02;;;;;;;3.78;1.45;;;;;;;15.23;59.32;101437.25;5000039;28;20100;-69
2022/05/29 10:36:28;;;;;;;2.75;1.33;;;;;;;14.82;62.16;101446.09;4998882;28;20556;-69
2022/05/29 10:39:09;;;;;;;7.07;2.08;;;;;;;14.41;63.02;101451.13;5007609;28;20135;-68
2022/05/29 10:41:38;;;;;;;4.53;1.92;;;;;;;14.11;65.69;101454.38;4987460;28;20164;-68
2022/05/29 10:44:03;;;;;;;2.30;1.42;;;;;;;13.95;65.98;101449.25;4989708;28;20022;-70
2022/05/29 10:46:48;;;;;;;4.30;1.23;;;;;;;14.15;65.56;101455.03;4999654;28;20373;-69
2022/05/29 10:49:27;;;;;;;4.22;1.20;;;;;;;14.27;64.14;101448.63;4986971;28;20042;-70
2022/05/29 10:52:03;;;;;;;3.55;1.08;;;;;;;14.51;64.93;101445.84;5002335;28;20037;-71
2022/05/29 10:54:45;;;;;;;3.20;1.00;;;;;;;14.81;64.70;101445.22;5001108;28;20558;-71
2022/05/29 10:57:35;;;;;;;3.15;1.13;;;;;;;15.11;64.14;101441.88;5000334;28;20460;-70
2022/05/29 11:00:00;;;;;;;4.88;1.20;;;;;;;15.27;63.07;101446.97;4996686;28;20049;-70
2022/05/29 11:03:18;;;;;;;6.63;1.33;;;;;;;15.32;62.24;101442.81;5006967;28;20046;-71
2022/05/29 11:05:58;;;;;;;2.78;1.25;;;;;;;15.35;64.82;101444.47;4999687;28;20040;-70
2022/05/29 11:08:31;;;;;;;3.85;1.00;;;;;;;15.44;61.99;101453.78;5005759;28;20038;-68
2022/05/29 11:11:26;;;;;;;1.65;1.00;;;;;;;15.16;61.32;101446.97;5005875;28;20046;-69
2022/05/29 11:14:32;;;;;;;3.85;1.20;;;;;;;14.70;62.47;101447.97;4996862;28;20113;-69
2022/05/29 11:17:04;;;;;;;1.45;0.95;;;;;;;14.24;65.64;101459.78;5004898;28;20120;-70
2022/05/29 11:19:53;;;;;;;5.07;1.00;;;;;;;13.78;66.16;101453.25;5003405;28;20033;-68
2022/05/29 11:22:46;;;;;;;2.42;0.98;;;;;;;13.21;67.89;101448.41;5005011;28;20041;-70
2022/05/29 11:25:31;;;;;;;3.63;0.70;;;;;;;13.10;67.95;101451.06;5007166;28;20045;-69
2022/05/29 11:28:22;;;;;;;4.70;1.48;;;;;;;13.06;70.86;101457.75;4999666;28;20034;-69
2022/05/29 11:31:24;;;;;;;4.65;1.30;;;;;;;13.33;69.87;101443.91;5003469;28;20045;-70
2022/05/29 11:33:56;;;;;;;2.35;1.10;;;;;;;13.41;69.01;101452.44;4985900;28;20042;-69
2022/05/29 11:36:42;;;;;;;3.25;1.08;;;;;;;13.60;68.17;101451.91;5000178;28;20544;-70
2022/05/29 11:39:17;;;;;;;3.33;1.10;;;;;;;13.69;69.59;101448.50;5004467;28;20041;-69
2022/05/29 11:41:50;;;;;;;3.67;1.00;;;;;;;13.83;68.83;101452.03;4984402;28;20061;-70
2022/05/29 11:44:57;;;;;;;1.58;0.95;;;;;;;13.87;68.56;101445.34;4989532;28;20038;-70
2022/05/29 11:53:29;;;;;;;2.20;1.50;;;;;;;13.55;70.53;101448.66;5008023;28;20492;-69
2022/05/29 11:55:57;;;;;;;2.72;0.90;;;;;;;13.41;68.71;101448.81;4991361;28;20500;-70
2022/05/29 11:58:38;;;;;;;1.70;1.00;;;;;;;13.46;69.86;101433.81;4988457;28;20077;-71
2022/05/29 12:01:11;;;;;;;3.58;1.10;;;;;;;13.64;69.68;101434.28;4987340;28;20097;-70
2022/05/29 12:03:45;;;;;;;2.55;0.80;;;;;;;13.52;68.19;101430.66;5008566;28;20120;-70
2022/05/29 12:06:29;;;;;;;2.53;0.70;;;;;;;13.51;67.43;101426.16;4999772;28;20053;-71
2022/05/29 12:09:36;;;;;;;4.80;0.80;;;;;;;13.72;70.55;101428.25;4989932;28;20045;-71
2022/05/29 12:12:10;;;;;;;2.25;0.80;;;;;;;13.89;69.70;101421.47;4916261;29;20044;-70
2022/05/29 12:14:43;;;;;;;3.33;0.93;;;;;;;13.96;68.68;101420.88;4989882;28;20411;-69
2022/05/29 12:17:24;;;;;;;2.83;0.90;;;;;;;14.04;68.86;101421.19;5002934;28;20057;-69
2022/05/29 12:20:01;;;;;;;2.78;1.08;;;;;;;13.93;69.83;101414.78;5002863;28;20482;-70
2022/05/29 12:22:33;;;;;;;1.42;0.90;;;;;;;13.92;69.37;101411.16;5003706;28;20038;-70
2022/05/29 12:24:59;;;;;;;2.10;0.77;;;;;;;13.95;69.43;101415.56;5005015;28;20042;-71